Time;durP1;ratioP1;P1;durP2;ratioP2;P2;SDS_P1;SDS_P2;PMS_P1;PMS_P2;Temp;Humidity;BMP_temperature;BMP_pressure;BME280_temperature;BME280_humidity;BME280_pressure;Samples;Min_cycle;Max_cycle;Signal;HPM_P1;HPM_P2
2022/08/08 00:02:28;;;;;;;4.40;1.98;;;26.80;99.90;;;;;;4115002;28;20234;-62
2022/08/08 00:05:05;;;;;;;4.35;2.05;;;26.70;99.90;;;;;;4153231;28;20045;-62
2022/08/08 00:07:26;;;;;;;2.50;2.10;;;26.80;99.90;;;;;;4135403;28;20057;-62
2022/08/08 00:10:03;;;;;;;2.50;1.70;;;26.90;99.90;;;;;;4129693;28;20065;-62
2022/08/08 00:12:14;;;;;;;3.80;1.88;;;26.90;99.90;;;;;;4112169;28;20102;-62
2022/08/08 00:14:52;;;;;;;3.50;1.70;;;26.90;99.90;;;;;;4126194;28;20061;-63
2022/08/08 00:17:14;;;;;;;3.20;1.92;;;27.00;99.90;;;;;;4127913;28;20051;-63
2022/08/08 00:19:50;;;;;;;3.63;2.40;;;27.00;99.90;;;;;;4131316;28;20038;-64
2022/08/08 00:22:05;;;;;;;3.25;2.13;;;27.00;99.90;;;;;;4134696;28;20611;-62
2022/08/08 00:24:17;;;;;;;7.00;1.90;;;27.00;99.90;;;;;;4133516;28;20104;-63
2022/08/08 00:26:31;;;;;;;1.70;1.52;;;27.10;99.90;;;;;;4132269;28;20073;-63
2022/08/08 00:28:43;;;;;;;2.30;1.70;;;27.10;99.90;;;;;;4135271;28;20043;-62
2022/08/08 00:30:51;;;;;;;3.47;1.70;;;27.10;99.90;;;;;;4131414;28;20569;-62
2022/08/08 00:33:25;;;;;;;2.50;1.80;;;27.20;99.90;;;;;;4137739;28;20046;-62
2022/08/08 00:36:19;;;;;;;3.25;2.17;;;27.20;99.90;;;;;;4135548;28;20516;-62
2022/08/08 00:38:49;;;;;;;2.85;2.00;;;27.20;99.90;;;;;;4135691;28;20045;-62
2022/08/08 00:41:26;;;;;;;2.35;1.90;;;27.10;99.90;;;;;;4143698;28;20042;-62
2022/08/08 00:44:15;;;;;;;2.65;1.90;;;27.10;99.90;;;;;;4168413;28;20551;-62
2022/08/08 00:46:56;;;;;;;4.55;2.20;;;27.10;99.90;;;;;;4129745;28;20085;-61
2022/08/08 00:49:39;;;;;;;3.80;1.65;;;27.20;99.90;;;;;;4129045;28;20050;-62
2022/08/08 00:51:58;;;;;;;2.40;1.55;;;27.30;99.90;;;;;;4114057;28;20050;-62
2022/08/08 00:54:31;;;;;;;2.65;2.00;;;27.10;99.90;;;;;;4141750;28;20092;-63
2022/08/08 00:57:09;;;;;;;2.30;1.77;;;27.20;99.90;;;;;;4152181;28;20048;-62
2022/08/08 00:59:52;;;;;;;2.78;1.50;;;27.10;99.90;;;;;;4137003;28;20278;-62
2022/08/08 01:02:40;;;;;;;2.03;1.40;;;27.20;99.90;;;;;;4137455;28;20100;-63
2022/08/08 01:05:41;;;;;;;1.85;1.40;;;27.30;99.90;;;;;;4140148;28;20211;-63
2022/08/08 01:08:37;;;;;;;2.53;1.60;;;27.30;99.90;;;;;;4135151;28;20508;-63
2022/08/08 01:11:21;;;;;;;2.85;1.67;;;27.30;99.90;;;;;;4128713;28;20062;-63
2022/08/08 01:13:58;;;;;;;2.47;1.17;;;27.40;99.90;;;;;;4127692;28;20057;-63
2022/08/08 01:16:36;;;;;;;2.83;1.50;;;27.50;99.90;;;;;;4160500;28;20041;-63
2022/08/08 01:18:55;;;;;;;2.22;1.30;;;27.60;99.90;;;;;;4127105;28;20129;-63
2022/08/08 01:21:39;;;;;;;4.50;1.33;;;27.70;99.90;;;;;;4128680;28;20120;-62
2022/08/08 01:24:33;;;;;;;1.80;1.23;;;27.70;99.90;;;;;;4119045;28;20050;-62
2022/08/08 01:27:02;;;;;;;2.95;1.30;;;27.60;99.90;;;;;;4131213;28;20279;-63
2022/08/08 01:29:42;;;;;;;3.53;1.40;;;27.70;99.90;;;;;;4116105;28;20137;-62
2022/08/08 01:32:53;;;;;;;3.45;1.35;;;27.60;99.90;;;;;;4115875;28;20042;-63
2022/08/08 01:35:22;;;;;;;3.15;1.60;;;27.60;99.90;;;;;;4133083;28;20100;-64
2022/08/08 01:38:10;;;;;;;2.97;1.50;;;27.60;99.90;;;;;;4119073;28;20556;-63
2022/08/08 01:40:53;;;;;;;1.95;1.20;;;27.60;99.90;;;;;;4125972;28;20051;-64
2022/08/08 01:43:18;;;;;;;1.60;1.27;;;27.60;99.90;;;;;;4135107;28;20050;-64
2022/08/08 01:45:57;;;;;;;2.28;1.60;;;27.50;99.90;;;;;;4104082;28;20109;-64
2022/08/08 01:48:36;;;;;;;2.33;1.38;;;27.60;99.90;;;;;;4119666;28;20488;-64
2022/08/08 01:51:10;;;;;;;2.22;1.20;;;27.70;99.90;;;;;;4135186;28;20052;-65
2022/08/08 01:54:04;;;;;;;3.60;1.10;;;27.90;99.90;;;;;;4114738;28;20056;-64
2022/08/08 01:56:57;;;;;;;1.60;1.00;;;28.00;99.90;;;;;;4122610;28;20042;-64
2022/08/08 01:59:44;;;;;;;1.95;1.40;;;28.10;99.90;;;;;;4118550;28;20598;-65
2022/08/08 02:03:01;;;;;;;2.67;1.30;;;28.10;99.90;;;;;;4123805;28;20084;-65
2022/08/08 02:05:50;;;;;;;2.88;1.35;;;28.10;99.90;;;;;;4125439;28;20104;-65
2022/08/08 02:08:28;;;;;;;1.25;1.00;;;28.10;99.90;;;;;;4125089;28;20058;-64
2022/08/08 02:11:01;;;;;;;2.17;1.10;;;27.90;99.90;;;;;;4124048;28;20374;-64
2022/08/08 02:13:23;;;;;;;2.38;1.08;;;27.90;99.90;;;;;;4128637;28;20133;-65
2022/08/08 02:16:08;;;;;;;2.22;1.50;;;28.10;99.90;;;;;;4129236;28;20089;-65
2022/08/08 02:19:02;;;;;;;1.90;1.48;;;27.80;99.90;;;;;;4118914;28;20050;-65
2022/08/08 02:24:23;;;;;;;4.18;1.17;;;27.90;99.90;;;;;;4123427;28;20054;-64
2022/08/08 02:26:41;;;;;;;3.20;1.02;;;28.00;99.90;;;;;;4129092;28;20094;-65
2022/08/08 02:29:12;;;;;;;2.70;1.20;;;28.00;99.90;;;;;;4128975;28;20038;-65
2022/08/08 02:31:40;;;;;;;2.70;0.98;;;28.10;99.90;;;;;;4126646;28;20400;-65
2022/08/08 02:34:38;;;;;;;1.27;1.00;;;28.00;99.90;;;;;;4126455;28;20542;-66
2022/08/08 02:37:33;;;;;;;2.20;1.60;;;28.10;99.90;;;;;;4137582;28;20096;-65
2022/08/08 02:40:29;;;;;;;1.70;1.15;;;28.10;99.90;;;;;;4141270;28;20041;-64
2022/08/08 02:43:04;;;;;;;1.67;0.80;;;28.20;99.90;;;;;;4067964;28;20043;-63
2022/08/08 02:45:53;;;;;;;2.42;0.90;;;28.30;99.90;;;;;;4127677;28;20659;-63
2022/08/08 02:48:28;;;;;;;1.85;0.90;;;28.00;99.90;;;;;;4127634;28;20054;-63
2022/08/08 02:51:11;;;;;;;1.75;0.80;;;27.80;99.90;;;;;;4154513;28;20046;-63
2022/08/08 02:53:56;;;;;;;4.90;1.23;;;27.70;99.90;;;;;;4150510;28;20615;-65
2022/08/08 02:56:21;;;;;;;2.13;1.17;;;27.80;99.90;;;;;;4127732;28;20050;-65
2022/08/08 02:58:51;;;;;;;2.72;1.58;;;27.90;99.90;;;;;;4125839;28;20039;-64
2022/08/08 03:01:21;;;;;;;3.38;1.50;;;27.90;99.90;;;;;;4125977;28;20533;-65
2022/08/08 03:03:57;;;;;;;2.08;1.25;;;27.80;99.90;;;;;;4129365;28;20046;-63
2022/08/08 03:06:57;;;;;;;2.38;0.95;;;27.90;99.90;;;;;;4083920;28;20138;-64
2022/08/08 03:09:23;;;;;;;2.42;1.00;;;28.10;99.90;;;;;;4085664;29;20055;-65
2022/08/08 03:11:55;;;;;;;3.10;1.15;;;28.30;99.90;;;;;;4104291;28;20047;-64
2022/08/08 03:14:34;;;;;;;2.47;1.20;;;28.30;99.90;;;;;;4096432;29;20138;-65
2022/08/08 03:17:19;;;;;;;2.80;1.20;;;28.20;99.90;;;;;;4087836;29;20090;-66
2022/08/08 03:20:04;;;;;;;2.13;1.00;;;28.30;99.90;;;;;;4049688;29;20716;-65
2022/08/08 03:22:17;;;;;;;3.63;1.00;;;28.10;99.90;;;;;;4070969;29;20044;-65
2022/08/08 03:24:42;;;;;;;1.27;1.00;;;28.00;99.90;;;;;;4071346;29;20040;-65
2022/08/08 03:27:07;;;;;;;1.90;1.10;;;28.00;99.90;;;;;;4073103;29;20487;-65
2022/08/08 03:29:22;;;;;;;2.58;0.80;;;28.10;99.90;;;;;;4073150;29;20051;-65
2022/08/08 03:34:13;;;;;;;3.72;1.20;;;28.00;99.90;;;;;;4088671;29;20086;-65
2022/08/08 03:36:22;;;;;;;3.22;1.00;;;28.10;99.90;;;;;;4088376;29;20494;-65
2022/08/08 03:38:34;;;;;;;2.38;1.27;;;28.10;99.90;;;;;;4088160;28;20558;-65
2022/08/08 03:40:58;;;;;;;3.85;1.10;;;28.20;99.90;;;;;;4088446;28;20039;-66
2022/08/08 03:43:25;;;;;;;1.83;0.95;;;28.40;99.90;;;;;;4057112;29;20056;-66
2022/08/08 03:45:41;;;;;;;2.25;0.60;;;28.50;99.90;;;;;;4041568;29;20053;-65
2022/08/08 03:48:08;;;;;;;0.95;0.70;;;28.50;99.90;;;;;;4048796;29;20052;-65
2022/08/08 03:50:35;;;;;;;0.80;0.40;;;28.40;99.90;;;;;;4050709;29;20058;-66
2022/08/08 03:52:40;;;;;;;1.48;0.80;;;28.40;99.90;;;;;;4078360;29;20813;-66
2022/08/08 03:54:49;;;;;;;1.65;1.08;;;28.50;99.90;;;;;;4088619;28;20522;-65
2022/08/08 03:57:16;;;;;;;1.88;0.70;;;28.50;99.90;;;;;;4065280;29;20151;-65
2022/08/08 03:59:41;;;;;;;4.68;0.60;;;28.50;99.90;;;;;;4096820;28;20585;-65
2022/08/08 04:02:16;;;;;;;2.78;1.13;;;28.60;99.90;;;;;;4112868;28;20055;-66
2022/08/08 04:04:39;;;;;;;1.88;0.98;;;28.60;99.90;;;;;;4081152;29;20087;-65
2022/08/08 04:07:02;;;;;;;1.60;0.50;;;28.60;99.90;;;;;;4096510;28;20079;-65
2022/08/08 04:09:11;;;;;;;2.25;0.60;;;28.70;99.90;;;;;;4096502;28;20142;-65
2022/08/08 04:11:18;;;;;;;2.13;0.50;;;28.80;99.90;;;;;;4096741;28;20047;-66
2022/08/08 04:13:28;;;;;;;0.85;0.47;;;28.80;99.90;;;;;;4097285;28;20066;-65
2022/08/08 04:15:52;;;;;;;1.25;0.40;;;28.80;99.90;;;;;;4111378;28;20113;-65
2022/08/08 04:18:14;;;;;;;1.17;0.40;;;28.80;99.90;;;;;;4092854;29;20049;-66
2022/08/08 04:20:21;;;;;;;0.98;0.40;;;28.80;99.90;;;;;;4107160;28;20157;-62
2022/08/08 04:22:33;;;;;;;0.40;0.38;;;28.60;99.90;;;;;;4128618;28;20046;-65
2022/08/08 04:24:39;;;;;;;1.20;0.40;;;28.70;99.90;;;;;;4129233;28;20140;-65
2022/08/08 04:26:46;;;;;;;1.38;0.47;;;28.80;99.90;;;;;;4128369;28;20038;-66
2022/08/08 04:29:02;;;;;;;1.67;0.70;;;28.90;99.90;;;;;;4128152;28;20045;-65
2022/08/08 04:31:12;;;;;;;2.47;0.70;;;28.90;99.90;;;;;;4128110;28;20046;-67
2022/08/08 04:33:37;;;;;;;0.70;0.30;;;29.00;99.90;;;;;;4127561;28;20046;-67
2022/08/08 04:35:46;;;;;;;1.40;0.60;;;28.80;99.90;;;;;;4125202;28;20160;-66
2022/08/08 04:37:55;;;;;;;0.52;0.20;;;28.80;99.90;;;;;;4127640;28;20083;-65
2022/08/08 04:40:08;;;;;;;1.25;0.50;;;28.70;99.90;;;;;;4128571;28;20046;-65
2022/08/08 04:42:24;;;;;;;1.05;0.47;;;28.80;99.90;;;;;;4129000;28;20042;-67
2022/08/08 04:44:29;;;;;;;2.83;0.60;;;29.00;99.90;;;;;;4126685;28;20721;-65
2022/08/08 04:46:36;;;;;;;0.40;0.20;;;29.10;99.90;;;;;;4136024;28;20038;-65
2022/08/08 04:48:42;;;;;;;0.40;0.30;;;29.20;99.90;;;;;;4112845;28;20098;-65
2022/08/08 04:50:49;;;;;;;0.85;0.40;;;29.20;99.90;;;;;;4129811;28;20042;-65
2022/08/08 04:52:59;;;;;;;7.93;0.70;;;29.40;99.90;;;;;;4137355;28;20085;-65
2022/08/08 04:55:18;;;;;;;0.50;0.30;;;29.50;99.90;;;;;;4127291;28;20041;-65
2022/08/08 04:57:27;;;;;;;2.25;0.30;;;29.60;99.90;;;;;;4128433;28;20872;-65
2022/08/08 04:59:33;;;;;;;0.25;0.10;;;29.70;99.90;;;;;;4129539;28;20408;-65
2022/08/08 05:01:45;;;;;;;0.40;0.10;;;29.70;99.90;;;;;;4128129;28;20065;-65
2022/08/08 05:04:04;;;;;;;0.73;0.22;;;29.60;99.90;;;;;;4128759;28;20058;-65
2022/08/08 05:06:18;;;;;;;0.82;0.25;;;29.70;99.90;;;;;;4128451;28;20062;-65
2022/08/08 05:08:31;;;;;;;0.40;0.20;;;29.70;99.90;;;;;;4128137;28;20066;-66
2022/08/08 05:10:39;;;;;;;0.17;0.17;;;29.80;99.90;;;;;;4128423;28;20494;-65
2022/08/08 05:12:47;;;;;;;0.20;0.20;;;29.80;99.90;;;;;;4128585;28;20058;-66
2022/08/08 05:15:08;;;;;;;1.30;0.30;;;29.80;99.90;;;;;;4127959;28;20089;-65
2022/08/08 05:17:18;;;;;;;2.08;1.20;;;29.80;99.90;;;;;;4124710;28;20047;-65
2022/08/08 05:19:23;;;;;;;1.98;1.40;;;29.60;99.90;;;;;;4124934;28;20053;-63
2022/08/08 05:21:51;;;;;;;1.30;0.38;;;29.80;99.90;;;;;;4126251;28;20046;-64
2022/08/08 05:24:07;;;;;;;1.58;0.40;;;29.80;99.90;;;;;;4125050;28;20062;-65
2022/08/08 05:26:14;;;;;;;0.70;0.20;;;30.10;99.90;;;;;;4123187;28;20050;-64
2022/08/08 05:28:23;;;;;;;0.15;0.10;;;30.10;99.90;;;;;;4123193;28;20118;-64
2022/08/08 05:30:49;;;;;;;0.63;0.30;;;30.20;99.90;;;;;;4099906;28;20058;-64
2022/08/08 05:32:57;;;;;;;1.00;0.30;;;30.10;99.90;;;;;;4101179;28;20055;-64
2022/08/08 05:35:06;;;;;;;1.20;0.50;;;30.10;99.90;;;;;;4100257;28;20055;-64
2022/08/08 05:37:18;;;;;;;0.52;0.30;;;29.90;99.90;;;;;;4084427;28;20191;-64
2022/08/08 05:39:25;;;;;;;0.85;0.50;;;30.00;99.90;;;;;;4083975;29;20047;-64
2022/08/08 05:41:38;;;;;;;0.77;0.63;;;30.20;99.90;;;;;;4084516;28;20039;-65
2022/08/08 05:44:09;;;;;;;0.63;0.57;;;30.10;99.90;;;;;;4054152;28;20083;-64
2022/08/08 05:46:14;;;;;;;0.43;0.20;;;30.10;99.90;;;;;;4085335;28;20059;-64
2022/08/08 05:48:20;;;;;;;0.85;0.20;;;30.10;99.90;;;;;;4089372;29;20046;-65
2022/08/08 05:50:36;;;;;;;0.60;0.40;;;30.20;99.90;;;;;;4089137;28;20236;-65
2022/08/08 05:52:42;;;;;;;0.98;0.38;;;30.40;99.90;;;;;;4087900;29;20079;-66
2022/08/08 05:54:49;;;;;;;1.15;0.40;;;30.40;99.90;;;;;;4089666;28;20142;-65
2022/08/08 05:57:05;;;;;;;1.35;0.45;;;30.50;99.90;;;;;;4089660;28;20070;-64
2022/08/08 05:59:20;;;;;;;0.10;0.10;;;30.50;99.90;;;;;;4091811;28;20083;-65
2022/08/08 06:01:57;;;;;;;0.43;0.20;;;30.60;99.90;;;;;;4090625;28;20051;-65
2022/08/08 06:04:03;;;;;;;0.50;0.40;;;30.70;99.90;;;;;;4088702;29;20052;-66
2022/08/08 06:06:16;;;;;;;0.40;0.20;;;30.60;99.90;;;;;;4084701;28;20138;-65
2022/08/08 06:08:49;;;;;;;2.22;0.25;;;30.70;99.90;;;;;;4102828;28;20054;-65
2022/08/08 06:11:02;;;;;;;1.15;0.40;;;30.50;99.90;;;;;;4112648;28;20162;-65
2022/08/08 06:13:08;;;;;;;0.60;0.20;;;30.60;99.90;;;;;;4128067;28;20097;-65
2022/08/08 06:15:17;;;;;;;0.65;0.20;;;30.50;99.90;;;;;;4152466;28;20137;-66
2022/08/08 06:17:38;;;;;;;0.98;0.30;;;30.50;99.90;;;;;;4125886;28;20822;-66
2022/08/08 06:20:04;;;;;;;0.95;0.20;;;30.70;99.90;;;;;;4129283;28;20097;-65
2022/08/08 06:22:13;;;;;;;0.95;0.38;;;30.90;99.90;;;;;;4127682;28;20042;-66
2022/08/08 06:24:43;;;;;;;0.77;0.30;;;31.00;99.90;;;;;;4128319;28;20161;-66
2022/08/08 06:27:03;;;;;;;2.30;0.50;;;31.10;99.90;;;;;;4125784;28;20571;-66
2022/08/08 06:29:09;;;;;;;2.63;0.75;;;31.00;99.90;;;;;;4127143;28;20489;-65
2022/08/08 06:31:36;;;;;;;1.20;0.43;;;31.10;99.90;;;;;;4126009;28;20187;-65
2022/08/08 06:34:22;;;;;;;1.23;0.30;;;31.10;99.90;;;;;;4128418;28;20109;-65
2022/08/08 06:36:42;;;;;;;0.43;0.20;;;31.00;99.90;;;;;;4128072;28;20425;-66
2022/08/08 06:38:59;;;;;;;0.50;0.20;;;31.00;99.90;;;;;;4126217;28;20626;-67
2022/08/08 06:41:11;;;;;;;3.05;0.40;;;31.00;99.90;;;;;;4127763;28;20125;-65
2022/08/08 06:43:22;;;;;;;0.50;0.28;;;31.10;99.90;;;;;;4153332;28;20073;-65
2022/08/08 06:45:48;;;;;;;3.10;0.40;;;31.20;99.90;;;;;;4128938;28;20094;-66
2022/08/08 06:47:54;;;;;;;2.80;0.65;;;31.30;99.90;;;;;;4126208;28;20054;-64
2022/08/08 06:50:12;;;;;;;1.42;0.50;;;31.40;99.90;;;;;;4126287;28;20109;-65
2022/08/08 06:52:35;;;;;;;2.63;0.40;;;31.40;99.90;;;;;;4125776;28;20141;-64
2022/08/08 06:54:45;;;;;;;3.20;0.68;;;31.40;99.90;;;;;;4129235;28;20421;-66
2022/08/08 06:56:52;;;;;;;1.55;0.40;;;31.40;99.90;;;;;;4173190;28;20186;-65
2022/08/08 06:58:58;;;;;;;3.05;0.70;;;31.40;99.90;;;;;;4131682;28;20038;-65
2022/08/08 07:01:06;;;;;;;1.60;0.57;;;31.60;99.90;;;;;;4128261;28;20133;-66
2022/08/08 07:03:53;;;;;;;1.23;0.70;;;31.70;99.90;;;;;;4128104;28;20050;-66
2022/08/08 07:06:22;;;;;;;1.45;0.60;;;31.70;99.90;;;;;;4129135;28;20489;-65
2022/08/08 07:08:36;;;;;;;1.75;0.70;;;31.60;99.90;;;;;;4127376;28;20052;-63
2022/08/08 07:10:50;;;;;;;1.77;0.60;;;31.30;99.90;;;;;;4127810;28;20406;-63
2022/08/08 07:13:06;;;;;;;1.15;0.50;;;31.20;99.90;;;;;;4127871;28;20046;-63
2022/08/08 07:15:25;;;;;;;0.85;0.57;;;31.00;99.90;;;;;;4159966;28;20748;-65
2022/08/08 07:17:50;;;;;;;2.50;0.40;;;30.90;99.90;;;;;;4127431;28;20635;-65
2022/08/08 07:20:21;;;;;;;0.70;0.30;;;30.60;99.70;;;;;;4128858;28;20137;-64
2022/08/08 07:22:44;;;;;;;1.35;0.38;;;30.50;99.60;;;;;;4142868;28;20484;-64
2022/08/08 07:24:58;;;;;;;0.45;0.28;;;30.50;99.40;;;;;;4127341;28;20050;-65
2022/08/08 07:27:03;;;;;;;0.85;0.50;;;30.40;99.40;;;;;;4127717;28;20093;-64
2022/08/08 07:29:14;;;;;;;1.77;0.25;;;30.40;99.80;;;;;;4126699;28;20046;-65
2022/08/08 07:31:42;;;;;;;0.75;0.30;;;30.30;99.40;;;;;;4125445;28;20050;-65
2022/08/08 07:33:52;;;;;;;0.70;0.28;;;30.40;99.90;;;;;;4151456;28;20096;-63
2022/08/08 07:36:04;;;;;;;1.48;0.30;;;30.60;99.90;;;;;;4125975;28;20206;-64
2022/08/08 07:38:11;;;;;;;0.75;0.25;;;30.80;99.80;;;;;;4127127;28;20050;-64
2022/08/08 07:40:34;;;;;;;1.83;0.40;;;30.80;99.40;;;;;;4127071;28;20042;-63
2022/08/08 07:42:45;;;;;;;2.08;0.45;;;30.80;99.10;;;;;;4126063;28;20046;-64
2022/08/08 07:44:51;;;;;;;1.45;0.50;;;30.60;99.30;;;;;;4126502;28;20065;-64
2022/08/08 07:46:57;;;;;;;2.15;0.30;;;30.60;99.90;;;;;;4127080;28;20153;-65
2022/08/08 07:49:02;;;;;;;4.35;0.38;;;30.70;99.90;;;;;;4126646;28;20429;-65
2022/08/08 07:51:09;;;;;;;1.17;0.45;;;30.90;99.60;;;;;;4128312;28;20069;-65
2022/08/08 07:53:46;;;;;;;1.30;0.45;;;30.90;99.60;;;;;;4126494;28;20054;-65
2022/08/08 07:56:12;;;;;;;2.53;0.50;;;30.80;99.40;;;;;;4159329;28;20053;-64
2022/08/08 07:58:39;;;;;;;2.03;0.93;;;30.90;99.90;;;;;;4127253;28;20051;-64
2022/08/08 08:00:53;;;;;;;1.75;1.00;;;30.90;99.90;;;;;;4111890;28;20774;-65
2022/08/08 08:03:13;;;;;;;2.60;0.90;;;30.90;99.90;;;;;;4127075;28;20042;-64
2022/08/08 08:05:28;;;;;;;1.80;0.52;;;30.60;99.90;;;;;;4126754;28;20088;-63
2022/08/08 08:07:39;;;;;;;2.28;0.45;;;30.60;99.90;;;;;;4127104;28;20050;-64
2022/08/08 08:09:52;;;;;;;2.22;0.40;;;30.80;99.90;;;;;;4126870;28;20600;-64
2022/08/08 08:11:57;;;;;;;1.15;0.52;;;30.60;99.90;;;;;;4128786;28;20556;-64
2022/08/08 08:14:08;;;;;;;1.73;0.50;;;30.70;99.90;;;;;;4157775;28;20080;-64
2022/08/08 08:16:25;;;;;;;2.88;0.70;;;30.70;99.90;;;;;;4126608;28;20557;-65
2022/08/08 08:18:43;;;;;;;1.42;0.52;;;31.00;99.90;;;;;;4126344;28;20058;-65
2022/08/08 08:21:03;;;;;;;1.55;0.65;;;31.00;99.90;;;;;;4129888;28;20046;-65
2022/08/08 08:23:22;;;;;;;2.10;0.47;;;31.10;99.90;;;;;;4139691;28;20046;-65
2022/08/08 08:25:30;;;;;;;2.38;0.70;;;30.80;99.90;;;;;;4126736;28;20138;-65
2022/08/08 08:27:51;;;;;;;2.72;0.60;;;30.80;99.90;;;;;;4126656;28;20054;-65
2022/08/08 08:29:58;;;;;;;1.20;0.45;;;31.00;99.90;;;;;;4126550;28;20529;-64
2022/08/08 08:32:04;;;;;;;3.60;0.70;;;31.00;99.90;;;;;;4126619;28;20743;-64
2022/08/08 08:34:13;;;;;;;3.92;1.00;;;31.00;99.90;;;;;;4126258;28;20682;-64
2022/08/08 08:36:27;;;;;;;1.77;0.52;;;31.00;99.90;;;;;;4109670;28;20051;-65
2022/08/08 08:38:33;;;;;;;3.83;2.22;;;30.70;99.90;;;;;;4127855;28;20046;-64
2022/08/08 08:40:46;;;;;;;3.40;1.15;;;30.70;99.90;;;;;;4159225;28;20045;-64
2022/08/08 08:42:54;;;;;;;3.25;1.85;;;30.50;99.90;;;;;;4126694;28;20054;-66
2022/08/08 08:45:00;;;;;;;2.28;1.10;;;30.70;99.90;;;;;;4126168;28;20112;-65
2022/08/08 08:47:26;;;;;;;2.17;0.70;;;30.90;99.90;;;;;;4126388;28;20121;-65
2022/08/08 08:49:46;;;;;;;3.47;2.22;;;30.80;99.90;;;;;;4125530;28;20577;-65
2022/08/08 08:51:51;;;;;;;2.42;0.73;;;30.90;99.90;;;;;;4109763;28;20065;-64
2022/08/08 08:53:56;;;;;;;2.10;1.60;;;30.80;99.90;;;;;;4127734;28;20081;-63
2022/08/08 08:56:11;;;;;;;3.50;2.57;;;30.80;99.90;;;;;;4127586;28;20398;-64
2022/08/08 08:58:41;;;;;;;3.53;1.83;;;30.70;99.90;;;;;;4113482;28;20088;-64
2022/08/08 09:00:59;;;;;;;1.50;1.00;;;30.60;99.50;;;;;;4129021;28;20070;-65
2022/08/08 09:03:19;;;;;;;0.60;0.30;;;30.70;99.90;;;;;;4128369;28;20101;-64
2022/08/08 09:05:35;;;;;;;1.25;0.30;;;30.80;99.40;;;;;;4114163;28;20098;-64
2022/08/08 09:07:59;;;;;;;0.75;0.20;;;30.90;99.70;;;;;;4128933;28;20056;-64
2022/08/08 09:10:21;;;;;;;;;;;30.90;99.00;;;;;;4098795;28;20102;-64
2022/08/08 09:12:34;;;;;;;0.50;0.30;;;30.80;98.80;;;;;;4129021;28;20440;-64
2022/08/08 09:14:39;;;;;;;1.55;0.30;;;30.70;99.20;;;;;;4128678;28;20108;-65
2022/08/08 09:16:51;;;;;;;0.47;0.30;;;30.60;99.30;;;;;;4128106;28;20034;-64
2022/08/08 09:18:56;;;;;;;1.85;0.35;;;30.70;99.50;;;;;;4128536;28;20042;-64
2022/08/08 09:21:01;;;;;;;3.30;0.60;;;30.90;99.70;;;;;;4132302;28;20046;-62
2022/08/08 09:23:29;;;;;;;1.20;0.50;;;30.90;99.80;;;;;;4145190;28;20056;-63
2022/08/08 09:25:50;;;;;;;2.38;0.82;;;30.90;99.70;;;;;;4145096;28;20062;-64
2022/08/08 09:28:10;;;;;;;1.45;0.70;;;30.90;99.90;;;;;;4112162;28;20050;-63
2022/08/08 09:30:35;;;;;;;2.25;0.70;;;31.00;99.90;;;;;;4112240;28;20560;-65
2022/08/08 09:32:49;;;;;;;4.20;0.90;;;31.00;99.80;;;;;;4143980;28;20057;-64
2022/08/08 09:35:21;;;;;;;1.65;0.55;;;31.00;99.50;;;;;;4128596;28;20049;-64
2022/08/08 09:37:47;;;;;;;2.97;0.60;;;31.00;99.30;;;;;;4124416;28;20164;-65
2022/08/08 09:40:11;;;;;;;1.65;0.50;;;31.00;99.50;;;;;;4129529;28;20081;-64
2022/08/08 09:42:23;;;;;;;1.58;0.80;;;30.90;99.20;;;;;;4129694;28;20505;-64
2022/08/08 09:45:09;;;;;;;3.20;0.80;;;30.80;99.50;;;;;;4127760;28;20050;-63
2022/08/08 09:47:36;;;;;;;3.07;0.80;;;30.80;99.50;;;;;;4129372;28;20481;-63
2022/08/08 09:50:02;;;;;;;1.02;0.70;;;30.80;99.80;;;;;;4128419;28;20297;-66
2022/08/08 09:52:21;;;;;;;2.25;0.82;;;30.80;99.90;;;;;;4128421;28;20079;-65
2022/08/08 09:54:46;;;;;;;2.97;0.70;;;30.80;99.70;;;;;;4127222;28;20504;-65
2022/08/08 09:56:54;;;;;;;2.97;0.95;;;30.80;99.90;;;;;;4152278;28;20043;-64
2022/08/08 09:59:04;;;;;;;1.23;0.55;;;30.70;99.80;;;;;;4127886;28;20417;-66
2022/08/08 10:01:29;;;;;;;3.40;0.65;;;30.70;99.90;;;;;;4127123;28;20105;-64
2022/08/08 10:03:57;;;;;;;1.10;0.70;;;30.60;99.70;;;;;;4070480;29;20048;-64
2022/08/08 10:06:16;;;;;;;3.85;0.90;;;30.70;99.90;;;;;;4079364;29;20102;-67
2022/08/08 10:08:21;;;;;;;1.13;0.60;;;30.70;99.80;;;;;;4085139;29;20047;-64
2022/08/08 10:10:41;;;;;;;2.30;0.60;;;30.60;99.70;;;;;;4076342;29;20155;-64
2022/08/08 10:12:53;;;;;;;2.70;0.98;;;30.70;99.80;;;;;;4095496;29;20134;-64
2022/08/08 10:15:03;;;;;;;1.70;0.60;;;30.60;99.90;;;;;;4095187;28;20073;-63
2022/08/08 10:17:20;;;;;;;1.75;0.50;;;30.60;99.90;;;;;;4063578;29;20522;-64
2022/08/08 10:19:46;;;;;;;1.33;0.80;;;30.60;99.90;;;;;;4080578;29;20047;-64
2022/08/08 10:22:02;;;;;;;4.78;1.23;;;30.60;99.90;;;;;;4106087;28;20055;-65
2022/08/08 10:24:11;;;;;;;5.60;2.95;;;30.60;99.90;;;;;;4111355;28;20059;-65
2022/08/08 10:26:37;;;;;;;4.70;2.35;;;30.60;99.90;;;;;;4111170;28;20055;-64
2022/08/08 10:29:10;;;;;;;4.30;2.08;;;30.70;99.90;;;;;;4098831;28;20059;-64
2022/08/08 10:33:52;;;;;;;7.35;3.75;;;30.60;99.90;;;;;;4075744;29;20494;-65
2022/08/08 10:36:16;;;;;;;3.95;2.47;;;30.70;99.90;;;;;;4129656;28;20432;-64
2022/08/08 10:38:29;;;;;;;3.13;1.30;;;30.60;99.90;;;;;;4129608;28;20050;-64
2022/08/08 10:40:36;;;;;;;3.85;1.15;;;30.60;99.90;;;;;;4129639;28;20422;-65
2022/08/08 10:42:41;;;;;;;2.85;1.15;;;30.50;99.90;;;;;;4128299;28;20752;-65
2022/08/08 10:44:58;;;;;;;4.00;1.42;;;30.60;99.90;;;;;;4132072;28;20065;-66
2022/08/08 10:47:14;;;;;;;6.00;1.50;;;30.50;99.90;;;;;;4121908;28;20086;-67
2022/08/08 10:49:24;;;;;;;5.63;1.88;;;30.50;99.90;;;;;;4128345;28;20520;-64
2022/08/08 10:51:49;;;;;;;6.80;2.20;;;30.50;99.90;;;;;;4147041;28;20169;-64
2022/08/08 10:53:56;;;;;;;3.67;1.90;;;30.50;99.90;;;;;;4114566;28;20046;-64
2022/08/08 10:56:04;;;;;;;4.05;1.98;;;30.40;99.90;;;;;;4116176;28;20039;-65
2022/08/08 10:58:11;;;;;;;4.60;1.25;;;30.40;99.90;;;;;;4115625;28;20274;-65
2022/08/08 11:00:25;;;;;;;3.67;1.40;;;30.40;99.90;;;;;;4131068;28;20046;-66
2022/08/08 11:02:32;;;;;;;2.47;1.40;;;30.30;99.90;;;;;;4131070;28;20046;-65
2022/08/08 11:04:45;;;;;;;4.32;1.30;;;30.30;99.90;;;;;;4131593;28;20050;-66
2022/08/08 11:06:59;;;;;;;3.42;1.20;;;30.30;99.90;;;;;;4115788;28;20050;-65
2022/08/08 11:09:06;;;;;;;4.75;1.23;;;30.30;99.90;;;;;;4128188;28;20074;-66
2022/08/08 11:11:22;;;;;;;3.63;1.00;;;30.20;99.90;;;;;;4128444;28;20042;-65
2022/08/08 11:13:47;;;;;;;4.00;0.95;;;30.10;99.90;;;;;;4134997;28;20038;-64
2022/08/08 11:16:02;;;;;;;2.80;1.00;;;30.10;99.90;;;;;;4143401;28;20148;-63
2022/08/08 11:18:14;;;;;;;2.45;0.82;;;30.10;99.90;;;;;;4143862;28;20050;-65
2022/08/08 11:20:22;;;;;;;3.13;0.90;;;30.00;99.90;;;;;;4130459;28;20607;-65
2022/08/08 11:22:30;;;;;;;3.22;0.73;;;30.00;99.90;;;;;;4116635;28;20046;-64
2022/08/08 11:24:39;;;;;;;5.35;1.17;;;30.10;99.90;;;;;;4128923;28;20039;-64
2022/08/08 11:26:48;;;;;;;2.53;1.20;;;30.00;99.90;;;;;;4129588;28;20053;-64
2022/08/08 11:29:01;;;;;;;3.38;0.93;;;30.00;99.90;;;;;;4130759;28;20113;-64
2022/08/08 11:31:11;;;;;;;3.25;0.82;;;30.00;99.90;;;;;;4130266;28;20125;-65
2022/08/08 11:33:17;;;;;;;1.77;0.90;;;30.00;99.90;;;;;;4128121;28;20039;-65
2022/08/08 11:35:24;;;;;;;3.70;1.10;;;30.00;99.90;;;;;;4129890;28;20464;-65
2022/08/08 11:37:45;;;;;;;3.50;1.10;;;29.90;99.90;;;;;;4128138;28;20034;-65
2022/08/08 11:40:11;;;;;;;7.90;2.78;;;29.90;99.90;;;;;;4129567;28;20576;-65
2022/08/08 11:42:16;;;;;;;6.03;2.40;;;29.70;99.90;;;;;;4130581;28;20549;-65
2022/08/08 11:44:31;;;;;;;5.57;3.00;;;29.80;99.90;;;;;;4129923;28;20042;-66
2022/08/08 11:46:35;;;;;;;2.80;1.52;;;29.70;99.90;;;;;;4128215;28;20052;-65
2022/08/08 11:48:41;;;;;;;5.10;1.60;;;29.60;99.90;;;;;;4129701;28;20042;-65
2022/08/08 11:50:49;;;;;;;2.72;1.70;;;29.60;99.90;;;;;;4128684;28;20133;-66
2022/08/08 11:52:56;;;;;;;3.03;1.92;;;29.60;99.90;;;;;;4127870;28;20046;-66
2022/08/08 11:55:01;;;;;;;3.22;2.30;;;29.70;99.90;;;;;;4127601;28;20113;-65
2022/08/08 11:57:10;;;;;;;5.03;2.60;;;29.70;99.90;;;;;;4127122;28;20067;-65
2022/08/08 11:59:16;;;;;;;3.47;2.40;;;29.70;99.90;;;;;;4126803;28;20042;-65
2022/08/08 12:01:41;;;;;;;3.25;2.30;;;29.70;99.90;;;;;;4126977;28;20389;-66
2022/08/08 12:03:51;;;;;;;3.50;2.25;;;29.70;99.90;;;;;;4128319;28;20042;-66
2022/08/08 12:06:12;;;;;;;3.22;1.90;;;29.70;99.90;;;;;;4126861;28;20424;-66
2022/08/08 12:08:29;;;;;;;5.35;1.80;;;29.70;99.90;;;;;;4127443;28;20397;-66
2022/08/08 12:10:45;;;;;;;3.67;1.73;;;29.60;99.90;;;;;;4125746;28;20045;-65
2022/08/08 12:13:08;;;;;;;3.17;1.63;;;29.60;99.90;;;;;;4145328;28;20046;-67
2022/08/08 12:15:22;;;;;;;2.85;1.65;;;29.60;99.90;;;;;;4126372;28;20743;-65
2022/08/08 12:17:38;;;;;;;3.20;1.30;;;29.60;99.90;;;;;;4136959;28;20049;-66
2022/08/08 12:19:56;;;;;;;3.83;1.40;;;29.50;99.90;;;;;;4128828;28;20050;-65
2022/08/08 12:22:07;;;;;;;2.40;1.30;;;29.50;99.90;;;;;;4129739;28;20042;-65